<?xml version="1.0" encoding="UTF-8" standalone="no" ?>
<gpx xmlns="http://www.topografix.com/GPX/1/1" creator="MapSource 6.11.6" version="1.1" xmlns:xsi="http://www.w3.org/2001/XMLSchema-instance" xsi:schemaLocation="http://www.topografix.com/GPX/1/1 http://www.topografix.com/GPX/1/1/gpx.xsd">

  <metadata>
    <link href="http://www.garmin.com">
      <text>Garmin International</text>
    </link>
    <time>2010-04-02T14:19:29Z</time>
    <bounds maxlat="50.664216" maxlon="6.429750" minlat="50.646585" minlon="6.406084"/>
  </metadata>

  <trk>
    <name>Rundweg 05 Schmidt</name>
    <extensions>
      <gpxx:TrackExtension xmlns:gpxx="http://www.garmin.com/xmlschemas/GpxExtensions/v3" xmlns:xsi="http://www.w3.org/2001/XMLSchema-instance" xsi:schemaLocation="http://www.garmin.com/xmlschemas/GpxExtensions/v3 http://www.garmin.com/xmlschemas/GpxExtensions/v3/GpxExtensionsv3.xsd">
        <gpxx:DisplayColor>White</gpxx:DisplayColor>
      </gpxx:TrackExtension>
    </extensions>
    <trkseg>
      <trkpt lat="50.659060" lon="6.409004">
        <ele>435.610000</ele>
        <time>2010-04-02T11:07:43Z</time>
      </trkpt>
      <trkpt lat="50.659047" lon="6.409061">
        <ele>435.610000</ele>
        <time>2010-04-02T11:07:46Z</time>
      </trkpt>
      <trkpt lat="50.659024" lon="6.409170">
        <ele>434.170000</ele>
        <time>2010-04-02T11:07:52Z</time>
      </trkpt>
      <trkpt lat="50.659030" lon="6.409259">
        <ele>432.730000</ele>
        <time>2010-04-02T11:07:56Z</time>
      </trkpt>
      <trkpt lat="50.659067" lon="6.409376">
        <ele>433.690000</ele>
        <time>2010-04-02T11:08:03Z</time>
      </trkpt>
      <trkpt lat="50.658979" lon="6.409406">
        <ele>433.690000</ele>
        <time>2010-04-02T11:08:12Z</time>
      </trkpt>
      <trkpt lat="50.658823" lon="6.409366">
        <ele>435.610000</ele>
        <time>2010-04-02T11:08:18Z</time>
      </trkpt>
      <trkpt lat="50.658646" lon="6.409245">
        <ele>435.610000</ele>
        <time>2010-04-02T11:08:30Z</time>
      </trkpt>
      <trkpt lat="50.658635" lon="6.409219">
        <ele>436.100000</ele>
        <time>2010-04-02T11:08:31Z</time>
      </trkpt>
      <trkpt lat="50.658500" lon="6.409097">
        <ele>435.610000</ele>
        <time>2010-04-02T11:08:41Z</time>
      </trkpt>
      <trkpt lat="50.658453" lon="6.409051">
        <ele>438.020000</ele>
        <time>2010-04-02T11:08:44Z</time>
      </trkpt>
      <trkpt lat="50.658411" lon="6.409001">
        <ele>437.060000</ele>
        <time>2010-04-02T11:08:48Z</time>
      </trkpt>
      <trkpt lat="50.658260" lon="6.408903">
        <ele>436.580000</ele>
        <time>2010-04-02T11:09:01Z</time>
      </trkpt>
      <trkpt lat="50.658221" lon="6.408967">
        <ele>437.540000</ele>
        <time>2010-04-02T11:09:20Z</time>
      </trkpt>
      <trkpt lat="50.658213" lon="6.408993">
        <ele>437.540000</ele>
        <time>2010-04-02T11:09:21Z</time>
      </trkpt>
      <trkpt lat="50.658132" lon="6.409150">
        <ele>436.580000</ele>
        <time>2010-04-02T11:09:29Z</time>
      </trkpt>
      <trkpt lat="50.658081" lon="6.409318">
        <ele>435.610000</ele>
        <time>2010-04-02T11:09:39Z</time>
      </trkpt>
      <trkpt lat="50.658027" lon="6.409478">
        <ele>436.100000</ele>
        <time>2010-04-02T11:09:47Z</time>
      </trkpt>
      <trkpt lat="50.657948" lon="6.409509">
        <ele>436.580000</ele>
        <time>2010-04-02T11:09:57Z</time>
      </trkpt>
      <trkpt lat="50.657721" lon="6.409370">
        <ele>437.540000</ele>
        <time>2010-04-02T11:10:17Z</time>
      </trkpt>
      <trkpt lat="50.657536" lon="6.409303">
        <ele>437.060000</ele>
        <time>2010-04-02T11:10:29Z</time>
      </trkpt>
      <trkpt lat="50.657460" lon="6.409282">
        <ele>438.020000</ele>
        <time>2010-04-02T11:10:34Z</time>
      </trkpt>
      <trkpt lat="50.657348" lon="6.409253">
        <ele>439.460000</ele>
        <time>2010-04-02T11:10:41Z</time>
      </trkpt>
      <trkpt lat="50.657217" lon="6.409203">
        <ele>440.900000</ele>
        <time>2010-04-02T11:10:50Z</time>
      </trkpt>
      <trkpt lat="50.657145" lon="6.409160">
        <ele>439.940000</ele>
        <time>2010-04-02T11:10:55Z</time>
      </trkpt>
      <trkpt lat="50.656965" lon="6.409208">
        <ele>438.980000</ele>
        <time>2010-04-02T11:11:08Z</time>
      </trkpt>
      <trkpt lat="50.656935" lon="6.409057">
        <ele>438.980000</ele>
        <time>2010-04-02T11:11:15Z</time>
      </trkpt>
      <trkpt lat="50.656903" lon="6.408807">
        <ele>439.940000</ele>
        <time>2010-04-02T11:11:28Z</time>
      </trkpt>
      <trkpt lat="50.656842" lon="6.408460">
        <ele>440.420000</ele>
        <time>2010-04-02T11:11:44Z</time>
      </trkpt>
      <trkpt lat="50.656829" lon="6.408384">
        <ele>441.860000</ele>
        <time>2010-04-02T11:11:48Z</time>
      </trkpt>
      <trkpt lat="50.656716" lon="6.408081">
        <ele>441.380000</ele>
        <time>2010-04-02T11:12:04Z</time>
      </trkpt>
      <trkpt lat="50.656682" lon="6.407990">
        <ele>441.380000</ele>
        <time>2010-04-02T11:12:09Z</time>
      </trkpt>
      <trkpt lat="50.656670" lon="6.407792">
        <ele>441.860000</ele>
        <time>2010-04-02T11:12:19Z</time>
      </trkpt>
      <trkpt lat="50.656641" lon="6.407534">
        <ele>441.380000</ele>
        <time>2010-04-02T11:12:30Z</time>
      </trkpt>
      <trkpt lat="50.656650" lon="6.407257">
        <ele>440.900000</ele>
        <time>2010-04-02T11:12:43Z</time>
      </trkpt>
      <trkpt lat="50.656604" lon="6.407139">
        <ele>440.900000</ele>
        <time>2010-04-02T11:12:49Z</time>
      </trkpt>
      <trkpt lat="50.656583" lon="6.407061">
        <ele>441.380000</ele>
        <time>2010-04-02T11:12:54Z</time>
      </trkpt>
      <trkpt lat="50.656521" lon="6.407033">
        <ele>440.900000</ele>
        <time>2010-04-02T11:12:58Z</time>
      </trkpt>
      <trkpt lat="50.656435" lon="6.407013">
        <ele>440.900000</ele>
        <time>2010-04-02T11:13:03Z</time>
      </trkpt>
      <trkpt lat="50.656320" lon="6.406922">
        <ele>440.420000</ele>
        <time>2010-04-02T11:13:12Z</time>
      </trkpt>
      <trkpt lat="50.656307" lon="6.406915">
        <ele>440.900000</ele>
        <time>2010-04-02T11:13:13Z</time>
      </trkpt>
      <trkpt lat="50.656091" lon="6.406846">
        <ele>439.940000</ele>
        <time>2010-04-02T11:13:28Z</time>
      </trkpt>
      <trkpt lat="50.656032" lon="6.406829">
        <ele>439.460000</ele>
        <time>2010-04-02T11:13:33Z</time>
      </trkpt>
      <trkpt lat="50.655983" lon="6.406912">
        <ele>440.900000</ele>
        <time>2010-04-02T11:13:38Z</time>
      </trkpt>
      <trkpt lat="50.655968" lon="6.407087">
        <ele>440.420000</ele>
        <time>2010-04-02T11:13:47Z</time>
      </trkpt>
      <trkpt lat="50.655934" lon="6.407429">
        <ele>440.900000</ele>
        <time>2010-04-02T11:14:02Z</time>
      </trkpt>
      <trkpt lat="50.655892" lon="6.407779">
        <ele>440.900000</ele>
        <time>2010-04-02T11:14:17Z</time>
      </trkpt>
      <trkpt lat="50.655869" lon="6.408085">
        <ele>440.420000</ele>
        <time>2010-04-02T11:14:32Z</time>
      </trkpt>
      <trkpt lat="50.655864" lon="6.408147">
        <ele>438.980000</ele>
        <time>2010-04-02T11:14:35Z</time>
      </trkpt>
      <trkpt lat="50.655863" lon="6.408425">
        <ele>440.420000</ele>
        <time>2010-04-02T11:14:49Z</time>
      </trkpt>
      <trkpt lat="50.655847" lon="6.408747">
        <ele>439.460000</ele>
        <time>2010-04-02T11:15:03Z</time>
      </trkpt>
      <trkpt lat="50.655789" lon="6.409018">
        <ele>438.020000</ele>
        <time>2010-04-02T11:15:16Z</time>
      </trkpt>
      <trkpt lat="50.655780" lon="6.409301">
        <ele>435.130000</ele>
        <time>2010-04-02T11:15:29Z</time>
      </trkpt>
      <trkpt lat="50.655818" lon="6.409624">
        <ele>433.210000</ele>
        <time>2010-04-02T11:15:43Z</time>
      </trkpt>
      <trkpt lat="50.655826" lon="6.409656">
        <ele>432.250000</ele>
        <time>2010-04-02T11:15:45Z</time>
      </trkpt>
      <trkpt lat="50.655824" lon="6.409699">
        <ele>431.770000</ele>
        <time>2010-04-02T11:15:47Z</time>
      </trkpt>
      <trkpt lat="50.655832" lon="6.409826">
        <ele>431.290000</ele>
        <time>2010-04-02T11:15:55Z</time>
      </trkpt>
      <trkpt lat="50.655872" lon="6.410071">
        <ele>429.850000</ele>
        <time>2010-04-02T11:16:09Z</time>
      </trkpt>
      <trkpt lat="50.655865" lon="6.410386">
        <ele>429.370000</ele>
        <time>2010-04-02T11:16:25Z</time>
      </trkpt>
      <trkpt lat="50.655883" lon="6.410437">
        <ele>429.370000</ele>
        <time>2010-04-02T11:16:28Z</time>
      </trkpt>
      <trkpt lat="50.655903" lon="6.410630">
        <ele>428.890000</ele>
        <time>2010-04-02T11:16:38Z</time>
      </trkpt>
      <trkpt lat="50.655897" lon="6.410798">
        <ele>426.960000</ele>
        <time>2010-04-02T11:16:45Z</time>
      </trkpt>
      <trkpt lat="50.655920" lon="6.411115">
        <ele>425.520000</ele>
        <time>2010-04-02T11:16:59Z</time>
      </trkpt>
      <trkpt lat="50.655929" lon="6.411408">
        <ele>425.040000</ele>
        <time>2010-04-02T11:17:15Z</time>
      </trkpt>
      <trkpt lat="50.655902" lon="6.411745">
        <ele>424.080000</ele>
        <time>2010-04-02T11:17:30Z</time>
      </trkpt>
      <trkpt lat="50.655890" lon="6.412075">
        <ele>423.600000</ele>
        <time>2010-04-02T11:17:46Z</time>
      </trkpt>
      <trkpt lat="50.655861" lon="6.412369">
        <ele>424.080000</ele>
        <time>2010-04-02T11:17:59Z</time>
      </trkpt>
      <trkpt lat="50.655896" lon="6.412408">
        <ele>424.560000</ele>
        <time>2010-04-02T11:18:20Z</time>
      </trkpt>
      <trkpt lat="50.655880" lon="6.412451">
        <ele>426.000000</ele>
        <time>2010-04-02T11:18:32Z</time>
      </trkpt>
      <trkpt lat="50.655780" lon="6.412777">
        <ele>425.520000</ele>
        <time>2010-04-02T11:18:48Z</time>
      </trkpt>
      <trkpt lat="50.655769" lon="6.412814">
        <ele>425.520000</ele>
        <time>2010-04-02T11:18:50Z</time>
      </trkpt>
      <trkpt lat="50.655720" lon="6.412917">
        <ele>425.520000</ele>
        <time>2010-04-02T11:18:56Z</time>
      </trkpt>
      <trkpt lat="50.655657" lon="6.412917">
        <ele>425.040000</ele>
        <time>2010-04-02T11:19:01Z</time>
      </trkpt>
      <trkpt lat="50.655481" lon="6.412913">
        <ele>423.600000</ele>
        <time>2010-04-02T11:19:15Z</time>
      </trkpt>
      <trkpt lat="50.655258" lon="6.412946">
        <ele>422.640000</ele>
        <time>2010-04-02T11:19:31Z</time>
      </trkpt>
      <trkpt lat="50.655080" lon="6.413056">
        <ele>423.600000</ele>
        <time>2010-04-02T11:19:46Z</time>
      </trkpt>
      <trkpt lat="50.654889" lon="6.413222">
        <ele>422.640000</ele>
        <time>2010-04-02T11:20:02Z</time>
      </trkpt>
      <trkpt lat="50.654643" lon="6.413298">
        <ele>422.640000</ele>
        <time>2010-04-02T11:20:18Z</time>
      </trkpt>
      <trkpt lat="50.654428" lon="6.413279">
        <ele>422.640000</ele>
        <time>2010-04-02T11:20:32Z</time>
      </trkpt>
      <trkpt lat="50.654265" lon="6.413397">
        <ele>423.120000</ele>
        <time>2010-04-02T11:20:45Z</time>
      </trkpt>
      <trkpt lat="50.654171" lon="6.413447">
        <ele>423.600000</ele>
        <time>2010-04-02T11:20:55Z</time>
      </trkpt>
      <trkpt lat="50.653976" lon="6.413463">
        <ele>424.560000</ele>
        <time>2010-04-02T11:21:10Z</time>
      </trkpt>
      <trkpt lat="50.653964" lon="6.413465">
        <ele>424.560000</ele>
        <time>2010-04-02T11:21:11Z</time>
      </trkpt>
      <trkpt lat="50.653884" lon="6.413459">
        <ele>423.600000</ele>
        <time>2010-04-02T11:21:17Z</time>
      </trkpt>
      <trkpt lat="50.653834" lon="6.413464">
        <ele>423.600000</ele>
        <time>2010-04-02T11:21:20Z</time>
      </trkpt>
      <trkpt lat="50.653724" lon="6.413434">
        <ele>423.600000</ele>
        <time>2010-04-02T11:21:30Z</time>
      </trkpt>
      <trkpt lat="50.653669" lon="6.413400">
        <ele>423.600000</ele>
        <time>2010-04-02T11:21:36Z</time>
      </trkpt>
      <trkpt lat="50.653636" lon="6.413385">
        <ele>425.040000</ele>
        <time>2010-04-02T11:21:39Z</time>
      </trkpt>
      <trkpt lat="50.653569" lon="6.413356">
        <ele>421.190000</ele>
        <time>2010-04-02T11:21:44Z</time>
      </trkpt>
      <trkpt lat="50.653389" lon="6.413200">
        <ele>420.230000</ele>
        <time>2010-04-02T11:21:58Z</time>
      </trkpt>
      <trkpt lat="50.653218" lon="6.413002">
        <ele>418.790000</ele>
        <time>2010-04-02T11:22:11Z</time>
      </trkpt>
      <trkpt lat="50.653076" lon="6.412842">
        <ele>417.350000</ele>
        <time>2010-04-02T11:22:26Z</time>
      </trkpt>
      <trkpt lat="50.652864" lon="6.412785">
        <ele>414.950000</ele>
        <time>2010-04-02T11:22:41Z</time>
      </trkpt>
      <trkpt lat="50.652830" lon="6.412795">
        <ele>415.430000</ele>
        <time>2010-04-02T11:22:43Z</time>
      </trkpt>
      <trkpt lat="50.652721" lon="6.412809">
        <ele>413.980000</ele>
        <time>2010-04-02T11:22:51Z</time>
      </trkpt>
      <trkpt lat="50.652598" lon="6.412804">
        <ele>413.020000</ele>
        <time>2010-04-02T11:23:01Z</time>
      </trkpt>
      <trkpt lat="50.652480" lon="6.412787">
        <ele>413.020000</ele>
        <time>2010-04-02T11:23:11Z</time>
      </trkpt>
      <trkpt lat="50.652376" lon="6.412720">
        <ele>411.580000</ele>
        <time>2010-04-02T11:23:24Z</time>
      </trkpt>
      <trkpt lat="50.652239" lon="6.412806">
        <ele>409.660000</ele>
        <time>2010-04-02T11:23:41Z</time>
      </trkpt>
      <trkpt lat="50.652142" lon="6.412887">
        <ele>408.700000</ele>
        <time>2010-04-02T11:23:48Z</time>
      </trkpt>
      <trkpt lat="50.652113" lon="6.412893">
        <ele>408.220000</ele>
        <time>2010-04-02T11:23:50Z</time>
      </trkpt>
      <trkpt lat="50.651949" lon="6.412968">
        <ele>408.220000</ele>
        <time>2010-04-02T11:24:08Z</time>
      </trkpt>
      <trkpt lat="50.651909" lon="6.412990">
        <ele>407.260000</ele>
        <time>2010-04-02T11:24:11Z</time>
      </trkpt>
      <trkpt lat="50.651647" lon="6.413067">
        <ele>403.890000</ele>
        <time>2010-04-02T11:24:29Z</time>
      </trkpt>
      <trkpt lat="50.651434" lon="6.413103">
        <ele>401.970000</ele>
        <time>2010-04-02T11:24:44Z</time>
      </trkpt>
      <trkpt lat="50.651360" lon="6.413097">
        <ele>401.490000</ele>
        <time>2010-04-02T11:24:51Z</time>
      </trkpt>
      <trkpt lat="50.651314" lon="6.413122">
        <ele>400.530000</ele>
        <time>2010-04-02T11:24:54Z</time>
      </trkpt>
      <trkpt lat="50.651153" lon="6.413131">
        <ele>399.080000</ele>
        <time>2010-04-02T11:25:08Z</time>
      </trkpt>
      <trkpt lat="50.651005" lon="6.413164">
        <ele>396.200000</ele>
        <time>2010-04-02T11:25:24Z</time>
      </trkpt>
      <trkpt lat="50.650917" lon="6.413168">
        <ele>395.240000</ele>
        <time>2010-04-02T11:25:43Z</time>
      </trkpt>
      <trkpt lat="50.650872" lon="6.413100">
        <ele>394.280000</ele>
        <time>2010-04-02T11:25:52Z</time>
      </trkpt>
      <trkpt lat="50.650758" lon="6.412849">
        <ele>391.870000</ele>
        <time>2010-04-02T11:26:06Z</time>
      </trkpt>
      <trkpt lat="50.650689" lon="6.412819">
        <ele>391.390000</ele>
        <time>2010-04-02T11:26:11Z</time>
      </trkpt>
      <trkpt lat="50.650536" lon="6.412851">
        <ele>388.990000</ele>
        <time>2010-04-02T11:26:24Z</time>
      </trkpt>
      <trkpt lat="50.650365" lon="6.412940">
        <ele>386.110000</ele>
        <time>2010-04-02T11:26:39Z</time>
      </trkpt>
      <trkpt lat="50.650197" lon="6.412808">
        <ele>383.700000</ele>
        <time>2010-04-02T11:26:58Z</time>
      </trkpt>
      <trkpt lat="50.650172" lon="6.412598">
        <ele>380.340000</ele>
        <time>2010-04-02T11:27:15Z</time>
      </trkpt>
      <trkpt lat="50.650119" lon="6.412332">
        <ele>377.450000</ele>
        <time>2010-04-02T11:27:25Z</time>
      </trkpt>
      <trkpt lat="50.649988" lon="6.412185">
        <ele>375.050000</ele>
        <time>2010-04-02T11:27:40Z</time>
      </trkpt>
      <trkpt lat="50.649836" lon="6.412024">
        <ele>371.690000</ele>
        <time>2010-04-02T11:27:55Z</time>
      </trkpt>
      <trkpt lat="50.649826" lon="6.412009">
        <ele>372.170000</ele>
        <time>2010-04-02T11:27:56Z</time>
      </trkpt>
      <trkpt lat="50.649790" lon="6.412020">
        <ele>371.690000</ele>
        <time>2010-04-02T11:27:58Z</time>
      </trkpt>
      <trkpt lat="50.649561" lon="6.412246">
        <ele>368.320000</ele>
        <time>2010-04-02T11:28:16Z</time>
      </trkpt>
      <trkpt lat="50.649413" lon="6.412475">
        <ele>364.960000</ele>
        <time>2010-04-02T11:28:32Z</time>
      </trkpt>
      <trkpt lat="50.649221" lon="6.412600">
        <ele>362.550000</ele>
        <time>2010-04-02T11:28:44Z</time>
      </trkpt>
      <trkpt lat="50.649161" lon="6.412658">
        <ele>361.590000</ele>
        <time>2010-04-02T11:28:49Z</time>
      </trkpt>
      <trkpt lat="50.649062" lon="6.412753">
        <ele>360.150000</ele>
        <time>2010-04-02T11:28:58Z</time>
      </trkpt>
      <trkpt lat="50.649041" lon="6.412762">
        <ele>359.670000</ele>
        <time>2010-04-02T11:29:00Z</time>
      </trkpt>
      <trkpt lat="50.648906" lon="6.412895">
        <ele>357.270000</ele>
        <time>2010-04-02T11:29:12Z</time>
      </trkpt>
      <trkpt lat="50.648877" lon="6.412925">
        <ele>357.270000</ele>
        <time>2010-04-02T11:29:15Z</time>
      </trkpt>
      <trkpt lat="50.648787" lon="6.413022">
        <ele>355.830000</ele>
        <time>2010-04-02T11:29:24Z</time>
      </trkpt>
      <trkpt lat="50.648721" lon="6.413113">
        <ele>354.380000</ele>
        <time>2010-04-02T11:29:32Z</time>
      </trkpt>
      <trkpt lat="50.648653" lon="6.413221">
        <ele>352.460000</ele>
        <time>2010-04-02T11:29:41Z</time>
      </trkpt>
      <trkpt lat="50.648564" lon="6.413239">
        <ele>350.540000</ele>
        <time>2010-04-02T11:29:52Z</time>
      </trkpt>
      <trkpt lat="50.648551" lon="6.413188">
        <ele>349.580000</ele>
        <time>2010-04-02T11:29:57Z</time>
      </trkpt>
      <trkpt lat="50.648531" lon="6.413140">
        <ele>349.100000</ele>
        <time>2010-04-02T11:30:00Z</time>
      </trkpt>
      <trkpt lat="50.648455" lon="6.412965">
        <ele>346.210000</ele>
        <time>2010-04-02T11:30:12Z</time>
      </trkpt>
      <trkpt lat="50.648379" lon="6.412891">
        <ele>344.770000</ele>
        <time>2010-04-02T11:30:25Z</time>
      </trkpt>
      <trkpt lat="50.648326" lon="6.413140">
        <ele>341.890000</ele>
        <time>2010-04-02T11:30:40Z</time>
      </trkpt>
      <trkpt lat="50.648328" lon="6.413234">
        <ele>341.410000</ele>
        <time>2010-04-02T11:30:45Z</time>
      </trkpt>
      <trkpt lat="50.648359" lon="6.413352">
        <ele>340.920000</ele>
        <time>2010-04-02T11:30:50Z</time>
      </trkpt>
      <trkpt lat="50.648538" lon="6.413682">
        <ele>339.000000</ele>
        <time>2010-04-02T11:31:10Z</time>
      </trkpt>
      <trkpt lat="50.648620" lon="6.413891">
        <ele>336.600000</ele>
        <time>2010-04-02T11:31:28Z</time>
      </trkpt>
      <trkpt lat="50.648429" lon="6.413860">
        <ele>333.230000</ele>
        <time>2010-04-02T11:31:47Z</time>
      </trkpt>
      <trkpt lat="50.648180" lon="6.413776">
        <ele>331.310000</ele>
        <time>2010-04-02T11:32:04Z</time>
      </trkpt>
      <trkpt lat="50.647975" lon="6.413814">
        <ele>328.430000</ele>
        <time>2010-04-02T11:32:20Z</time>
      </trkpt>
      <trkpt lat="50.647807" lon="6.413751">
        <ele>325.060000</ele>
        <time>2010-04-02T11:32:34Z</time>
      </trkpt>
      <trkpt lat="50.647714" lon="6.413715">
        <ele>324.100000</ele>
        <time>2010-04-02T11:32:41Z</time>
      </trkpt>
      <trkpt lat="50.647649" lon="6.413615">
        <ele>322.180000</ele>
        <time>2010-04-02T11:32:49Z</time>
      </trkpt>
      <trkpt lat="50.647416" lon="6.413532">
        <ele>319.780000</ele>
        <time>2010-04-02T11:33:04Z</time>
      </trkpt>
      <trkpt lat="50.647310" lon="6.413477">
        <ele>318.330000</ele>
        <time>2010-04-02T11:33:13Z</time>
      </trkpt>
      <trkpt lat="50.647172" lon="6.413412">
        <ele>315.450000</ele>
        <time>2010-04-02T11:33:27Z</time>
      </trkpt>
      <trkpt lat="50.647114" lon="6.413391">
        <ele>314.490000</ele>
        <time>2010-04-02T11:33:32Z</time>
      </trkpt>
      <trkpt lat="50.647100" lon="6.413367">
        <ele>314.490000</ele>
        <time>2010-04-02T11:33:34Z</time>
      </trkpt>
      <trkpt lat="50.647006" lon="6.413240">
        <ele>313.050000</ele>
        <time>2010-04-02T11:33:43Z</time>
      </trkpt>
      <trkpt lat="50.646970" lon="6.413203">
        <ele>313.050000</ele>
        <time>2010-04-02T11:33:47Z</time>
      </trkpt>
      <trkpt lat="50.646909" lon="6.413140">
        <ele>312.090000</ele>
        <time>2010-04-02T11:33:54Z</time>
      </trkpt>
      <trkpt lat="50.646780" lon="6.413020">
        <ele>311.600000</ele>
        <time>2010-04-02T11:34:09Z</time>
      </trkpt>
      <trkpt lat="50.646626" lon="6.413011">
        <ele>310.160000</ele>
        <time>2010-04-02T11:34:24Z</time>
      </trkpt>
      <trkpt lat="50.646585" lon="6.413121">
        <ele>309.680000</ele>
        <time>2010-04-02T11:34:32Z</time>
      </trkpt>
      <trkpt lat="50.646681" lon="6.413250">
        <ele>309.200000</ele>
        <time>2010-04-02T11:34:40Z</time>
      </trkpt>
      <trkpt lat="50.646788" lon="6.413441">
        <ele>306.800000</ele>
        <time>2010-04-02T11:34:59Z</time>
      </trkpt>
      <trkpt lat="50.646926" lon="6.413660">
        <ele>303.910000</ele>
        <time>2010-04-02T11:35:18Z</time>
      </trkpt>
      <trkpt lat="50.646970" lon="6.413735">
        <ele>302.470000</ele>
        <time>2010-04-02T11:35:23Z</time>
      </trkpt>
      <trkpt lat="50.647134" lon="6.413950">
        <ele>299.110000</ele>
        <time>2010-04-02T11:35:37Z</time>
      </trkpt>
      <trkpt lat="50.647372" lon="6.414238">
        <ele>297.670000</ele>
        <time>2010-04-02T11:35:59Z</time>
      </trkpt>
      <trkpt lat="50.647580" lon="6.414437">
        <ele>294.780000</ele>
        <time>2010-04-02T11:36:16Z</time>
      </trkpt>
      <trkpt lat="50.647717" lon="6.414648">
        <ele>291.420000</ele>
        <time>2010-04-02T11:36:33Z</time>
      </trkpt>
      <trkpt lat="50.647807" lon="6.414928">
        <ele>289.490000</ele>
        <time>2010-04-02T11:36:52Z</time>
      </trkpt>
      <trkpt lat="50.648016" lon="6.415167">
        <ele>289.970000</ele>
        <time>2010-04-02T11:37:12Z</time>
      </trkpt>
      <trkpt lat="50.648156" lon="6.415440">
        <ele>290.940000</ele>
        <time>2010-04-02T11:37:31Z</time>
      </trkpt>
      <trkpt lat="50.648328" lon="6.415553">
        <ele>289.010000</ele>
        <time>2010-04-02T11:37:46Z</time>
      </trkpt>
      <trkpt lat="50.648476" lon="6.415770">
        <ele>287.570000</ele>
        <time>2010-04-02T11:38:03Z</time>
      </trkpt>
      <trkpt lat="50.648638" lon="6.416000">
        <ele>286.130000</ele>
        <time>2010-04-02T11:38:18Z</time>
      </trkpt>
      <trkpt lat="50.648660" lon="6.416045">
        <ele>286.130000</ele>
        <time>2010-04-02T11:38:21Z</time>
      </trkpt>
      <trkpt lat="50.648875" lon="6.416311">
        <ele>285.650000</ele>
        <time>2010-04-02T11:38:40Z</time>
      </trkpt>
      <trkpt lat="50.649050" lon="6.416481">
        <ele>285.170000</ele>
        <time>2010-04-02T11:38:58Z</time>
      </trkpt>
      <trkpt lat="50.649237" lon="6.416730">
        <ele>284.690000</ele>
        <time>2010-04-02T11:39:17Z</time>
      </trkpt>
      <trkpt lat="50.649392" lon="6.416969">
        <ele>284.690000</ele>
        <time>2010-04-02T11:39:35Z</time>
      </trkpt>
      <trkpt lat="50.649549" lon="6.417240">
        <ele>284.210000</ele>
        <time>2010-04-02T11:39:52Z</time>
      </trkpt>
      <trkpt lat="50.649643" lon="6.417459">
        <ele>283.250000</ele>
        <time>2010-04-02T11:40:08Z</time>
      </trkpt>
      <trkpt lat="50.649806" lon="6.417854">
        <ele>281.800000</ele>
        <time>2010-04-02T11:40:29Z</time>
      </trkpt>
      <trkpt lat="50.649814" lon="6.417869">
        <ele>281.320000</ele>
        <time>2010-04-02T11:40:30Z</time>
      </trkpt>
      <trkpt lat="50.649835" lon="6.417905">
        <ele>280.360000</ele>
        <time>2010-04-02T11:40:33Z</time>
      </trkpt>
      <trkpt lat="50.649914" lon="6.418054">
        <ele>279.880000</ele>
        <time>2010-04-02T11:40:46Z</time>
      </trkpt>
      <trkpt lat="50.649963" lon="6.418092">
        <ele>280.360000</ele>
        <time>2010-04-02T11:40:49Z</time>
      </trkpt>
      <trkpt lat="50.650117" lon="6.418224">
        <ele>280.840000</ele>
        <time>2010-04-02T11:41:02Z</time>
      </trkpt>
      <trkpt lat="50.650265" lon="6.418304">
        <ele>280.840000</ele>
        <time>2010-04-02T11:41:18Z</time>
      </trkpt>
      <trkpt lat="50.650550" lon="6.418269">
        <ele>281.800000</ele>
        <time>2010-04-02T11:41:40Z</time>
      </trkpt>
      <trkpt lat="50.650717" lon="6.418218">
        <ele>281.320000</ele>
        <time>2010-04-02T11:41:53Z</time>
      </trkpt>
      <trkpt lat="50.650843" lon="6.418175">
        <ele>281.320000</ele>
        <time>2010-04-02T11:42:00Z</time>
      </trkpt>
      <trkpt lat="50.650934" lon="6.418170">
        <ele>281.800000</ele>
        <time>2010-04-02T11:42:09Z</time>
      </trkpt>
      <trkpt lat="50.651049" lon="6.418119">
        <ele>280.840000</ele>
        <time>2010-04-02T11:42:20Z</time>
      </trkpt>
      <trkpt lat="50.651136" lon="6.418125">
        <ele>280.840000</ele>
        <time>2010-04-02T11:42:27Z</time>
      </trkpt>
      <trkpt lat="50.651299" lon="6.418152">
        <ele>279.400000</ele>
        <time>2010-04-02T11:42:38Z</time>
      </trkpt>
      <trkpt lat="50.651425" lon="6.418295">
        <ele>279.400000</ele>
        <time>2010-04-02T11:42:52Z</time>
      </trkpt>
      <trkpt lat="50.651373" lon="6.418644">
        <ele>280.360000</ele>
        <time>2010-04-02T11:43:10Z</time>
      </trkpt>
      <trkpt lat="50.651305" lon="6.418932">
        <ele>281.320000</ele>
        <time>2010-04-02T11:43:23Z</time>
      </trkpt>
      <trkpt lat="50.651287" lon="6.419009">
        <ele>280.840000</ele>
        <time>2010-04-02T11:43:26Z</time>
      </trkpt>
      <trkpt lat="50.651166" lon="6.419368">
        <ele>282.770000</ele>
        <time>2010-04-02T11:43:42Z</time>
      </trkpt>
      <trkpt lat="50.651095" lon="6.419637">
        <ele>282.280000</ele>
        <time>2010-04-02T11:43:59Z</time>
      </trkpt>
      <trkpt lat="50.651037" lon="6.419803">
        <ele>283.730000</ele>
        <time>2010-04-02T11:44:07Z</time>
      </trkpt>
      <trkpt lat="50.650999" lon="6.419996">
        <ele>281.800000</ele>
        <time>2010-04-02T11:44:17Z</time>
      </trkpt>
      <trkpt lat="50.650902" lon="6.420315">
        <ele>280.840000</ele>
        <time>2010-04-02T11:44:31Z</time>
      </trkpt>
      <trkpt lat="50.650894" lon="6.420396">
        <ele>280.840000</ele>
        <time>2010-04-02T11:44:35Z</time>
      </trkpt>
      <trkpt lat="50.650903" lon="6.420486">
        <ele>280.360000</ele>
        <time>2010-04-02T11:44:39Z</time>
      </trkpt>
      <trkpt lat="50.650920" lon="6.420727">
        <ele>280.840000</ele>
        <time>2010-04-02T11:44:50Z</time>
      </trkpt>
      <trkpt lat="50.650945" lon="6.420871">
        <ele>281.320000</ele>
        <time>2010-04-02T11:44:57Z</time>
      </trkpt>
      <trkpt lat="50.650956" lon="6.420930">
        <ele>281.320000</ele>
        <time>2010-04-02T11:45:00Z</time>
      </trkpt>
      <trkpt lat="50.650990" lon="6.421004">
        <ele>281.320000</ele>
        <time>2010-04-02T11:45:04Z</time>
      </trkpt>
      <trkpt lat="50.651010" lon="6.421118">
        <ele>281.320000</ele>
        <time>2010-04-02T11:45:09Z</time>
      </trkpt>
      <trkpt lat="50.651013" lon="6.421245">
        <ele>280.840000</ele>
        <time>2010-04-02T11:45:14Z</time>
      </trkpt>
      <trkpt lat="50.651003" lon="6.421339">
        <ele>280.840000</ele>
        <time>2010-04-02T11:45:18Z</time>
      </trkpt>
      <trkpt lat="50.650960" lon="6.421578">
        <ele>279.880000</ele>
        <time>2010-04-02T11:45:29Z</time>
      </trkpt>
      <trkpt lat="50.650953" lon="6.421598">
        <ele>279.880000</ele>
        <time>2010-04-02T11:45:30Z</time>
      </trkpt>
      <trkpt lat="50.650955" lon="6.421651">
        <ele>280.360000</ele>
        <time>2010-04-02T11:45:33Z</time>
      </trkpt>
      <trkpt lat="50.650963" lon="6.421742">
        <ele>279.880000</ele>
        <time>2010-04-02T11:45:37Z</time>
      </trkpt>
      <trkpt lat="50.650984" lon="6.421867">
        <ele>281.320000</ele>
        <time>2010-04-02T11:45:43Z</time>
      </trkpt>
      <trkpt lat="50.650988" lon="6.421902">
        <ele>280.840000</ele>
        <time>2010-04-02T11:45:45Z</time>
      </trkpt>
      <trkpt lat="50.650997" lon="6.421981">
        <ele>280.840000</ele>
        <time>2010-04-02T11:45:49Z</time>
      </trkpt>
      <trkpt lat="50.651033" lon="6.422091">
        <ele>281.320000</ele>
        <time>2010-04-02T11:45:56Z</time>
      </trkpt>
      <trkpt lat="50.651028" lon="6.422263">
        <ele>281.320000</ele>
        <time>2010-04-02T11:46:04Z</time>
      </trkpt>
      <trkpt lat="50.651028" lon="6.422373">
        <ele>281.800000</ele>
        <time>2010-04-02T11:46:10Z</time>
      </trkpt>
      <trkpt lat="50.650984" lon="6.422588">
        <ele>282.280000</ele>
        <time>2010-04-02T11:46:21Z</time>
      </trkpt>
      <trkpt lat="50.650975" lon="6.422807">
        <ele>282.280000</ele>
        <time>2010-04-02T11:46:33Z</time>
      </trkpt>
      <trkpt lat="50.650937" lon="6.422893">
        <ele>282.280000</ele>
        <time>2010-04-02T11:46:37Z</time>
      </trkpt>
      <trkpt lat="50.650867" lon="6.423090">
        <ele>282.770000</ele>
        <time>2010-04-02T11:46:47Z</time>
      </trkpt>
      <trkpt lat="50.650859" lon="6.423100">
        <ele>282.770000</ele>
        <time>2010-04-02T11:46:48Z</time>
      </trkpt>
      <trkpt lat="50.650766" lon="6.423314">
        <ele>281.800000</ele>
        <time>2010-04-02T11:46:59Z</time>
      </trkpt>
      <trkpt lat="50.650750" lon="6.423395">
        <ele>282.280000</ele>
        <time>2010-04-02T11:47:02Z</time>
      </trkpt>
      <trkpt lat="50.650732" lon="6.423475">
        <ele>282.280000</ele>
        <time>2010-04-02T11:47:06Z</time>
      </trkpt>
      <trkpt lat="50.650695" lon="6.423702">
        <ele>281.800000</ele>
        <time>2010-04-02T11:47:18Z</time>
      </trkpt>
      <trkpt lat="50.650632" lon="6.423822">
        <ele>282.280000</ele>
        <time>2010-04-02T11:47:27Z</time>
      </trkpt>
      <trkpt lat="50.650618" lon="6.423930">
        <ele>282.280000</ele>
        <time>2010-04-02T11:47:32Z</time>
      </trkpt>
      <trkpt lat="50.650504" lon="6.424162">
        <ele>282.770000</ele>
        <time>2010-04-02T11:47:45Z</time>
      </trkpt>
      <trkpt lat="50.650448" lon="6.424392">
        <ele>283.250000</ele>
        <time>2010-04-02T11:47:56Z</time>
      </trkpt>
      <trkpt lat="50.650297" lon="6.424603">
        <ele>283.250000</ele>
        <time>2010-04-02T11:48:10Z</time>
      </trkpt>
      <trkpt lat="50.650236" lon="6.424680">
        <ele>284.690000</ele>
        <time>2010-04-02T11:48:24Z</time>
      </trkpt>
      <trkpt lat="50.650182" lon="6.424828">
        <ele>285.650000</ele>
        <time>2010-04-02T11:48:33Z</time>
      </trkpt>
      <trkpt lat="50.650185" lon="6.424930">
        <ele>285.650000</ele>
        <time>2010-04-02T11:48:39Z</time>
      </trkpt>
      <trkpt lat="50.650045" lon="6.425130">
        <ele>287.570000</ele>
        <time>2010-04-02T11:48:50Z</time>
      </trkpt>
      <trkpt lat="50.649997" lon="6.425174">
        <ele>287.570000</ele>
        <time>2010-04-02T11:48:54Z</time>
      </trkpt>
      <trkpt lat="50.649951" lon="6.425225">
        <ele>288.050000</ele>
        <time>2010-04-02T11:48:59Z</time>
      </trkpt>
      <trkpt lat="50.649859" lon="6.425561">
        <ele>285.170000</ele>
        <time>2010-04-02T11:49:14Z</time>
      </trkpt>
      <trkpt lat="50.649683" lon="6.425728">
        <ele>287.090000</ele>
        <time>2010-04-02T11:49:28Z</time>
      </trkpt>
      <trkpt lat="50.649658" lon="6.425806">
        <ele>284.210000</ele>
        <time>2010-04-02T11:49:33Z</time>
      </trkpt>
      <trkpt lat="50.649587" lon="6.426059">
        <ele>283.730000</ele>
        <time>2010-04-02T11:49:46Z</time>
      </trkpt>
      <trkpt lat="50.649552" lon="6.426129">
        <ele>285.170000</ele>
        <time>2010-04-02T11:49:50Z</time>
      </trkpt>
      <trkpt lat="50.649415" lon="6.426329">
        <ele>284.210000</ele>
        <time>2010-04-02T11:50:03Z</time>
      </trkpt>
      <trkpt lat="50.649387" lon="6.426520">
        <ele>284.690000</ele>
        <time>2010-04-02T11:50:14Z</time>
      </trkpt>
      <trkpt lat="50.649342" lon="6.426848">
        <ele>284.210000</ele>
        <time>2010-04-02T11:50:29Z</time>
      </trkpt>
      <trkpt lat="50.649256" lon="6.427042">
        <ele>284.690000</ele>
        <time>2010-04-02T11:50:40Z</time>
      </trkpt>
      <trkpt lat="50.649246" lon="6.427081">
        <ele>285.170000</ele>
        <time>2010-04-02T11:50:42Z</time>
      </trkpt>
      <trkpt lat="50.649221" lon="6.427104">
        <ele>284.690000</ele>
        <time>2010-04-02T11:50:45Z</time>
      </trkpt>
      <trkpt lat="50.649106" lon="6.427269">
        <ele>284.210000</ele>
        <time>2010-04-02T11:50:57Z</time>
      </trkpt>
      <trkpt lat="50.648964" lon="6.427453">
        <ele>284.210000</ele>
        <time>2010-04-02T11:51:10Z</time>
      </trkpt>
      <trkpt lat="50.648841" lon="6.427700">
        <ele>285.170000</ele>
        <time>2010-04-02T11:51:22Z</time>
      </trkpt>
      <trkpt lat="50.648752" lon="6.428015">
        <ele>285.650000</ele>
        <time>2010-04-02T11:51:39Z</time>
      </trkpt>
      <trkpt lat="50.648728" lon="6.428211">
        <ele>286.130000</ele>
        <time>2010-04-02T11:51:52Z</time>
      </trkpt>
      <trkpt lat="50.648688" lon="6.428404">
        <ele>286.130000</ele>
        <time>2010-04-02T11:52:02Z</time>
      </trkpt>
      <trkpt lat="50.648794" lon="6.428592">
        <ele>286.610000</ele>
        <time>2010-04-02T11:52:17Z</time>
      </trkpt>
      <trkpt lat="50.648918" lon="6.428629">
        <ele>287.090000</ele>
        <time>2010-04-02T11:52:29Z</time>
      </trkpt>
      <trkpt lat="50.648982" lon="6.428646">
        <ele>287.090000</ele>
        <time>2010-04-02T11:52:32Z</time>
      </trkpt>
      <trkpt lat="50.649028" lon="6.428692">
        <ele>287.090000</ele>
        <time>2010-04-02T11:52:35Z</time>
      </trkpt>
      <trkpt lat="50.649252" lon="6.428754">
        <ele>287.090000</ele>
        <time>2010-04-02T11:52:47Z</time>
      </trkpt>
      <trkpt lat="50.649383" lon="6.428720">
        <ele>287.570000</ele>
        <time>2010-04-02T11:53:00Z</time>
      </trkpt>
      <trkpt lat="50.649511" lon="6.428683">
        <ele>287.570000</ele>
        <time>2010-04-02T11:53:07Z</time>
      </trkpt>
      <trkpt lat="50.649600" lon="6.428670">
        <ele>287.570000</ele>
        <time>2010-04-02T11:53:12Z</time>
      </trkpt>
      <trkpt lat="50.649750" lon="6.428703">
        <ele>287.570000</ele>
        <time>2010-04-02T11:53:25Z</time>
      </trkpt>
      <trkpt lat="50.649761" lon="6.428726">
        <ele>287.570000</ele>
        <time>2010-04-02T11:53:27Z</time>
      </trkpt>
      <trkpt lat="50.649853" lon="6.428770">
        <ele>287.570000</ele>
        <time>2010-04-02T11:53:38Z</time>
      </trkpt>
      <trkpt lat="50.650113" lon="6.428810">
        <ele>287.570000</ele>
        <time>2010-04-02T11:53:57Z</time>
      </trkpt>
      <trkpt lat="50.650192" lon="6.428855">
        <ele>287.570000</ele>
        <time>2010-04-02T11:54:07Z</time>
      </trkpt>
      <trkpt lat="50.650365" lon="6.428909">
        <ele>287.570000</ele>
        <time>2010-04-02T11:54:19Z</time>
      </trkpt>
      <trkpt lat="50.650547" lon="6.428959">
        <ele>287.090000</ele>
        <time>2010-04-02T11:54:36Z</time>
      </trkpt>
      <trkpt lat="50.650698" lon="6.429034">
        <ele>287.090000</ele>
        <time>2010-04-02T11:54:47Z</time>
      </trkpt>
      <trkpt lat="50.650901" lon="6.429081">
        <ele>286.610000</ele>
        <time>2010-04-02T11:55:02Z</time>
      </trkpt>
      <trkpt lat="50.651053" lon="6.429229">
        <ele>287.090000</ele>
        <time>2010-04-02T11:55:14Z</time>
      </trkpt>
      <trkpt lat="50.651090" lon="6.429605">
        <ele>287.090000</ele>
        <time>2010-04-02T11:55:35Z</time>
      </trkpt>
      <trkpt lat="50.651102" lon="6.429670">
        <ele>290.460000</ele>
        <time>2010-04-02T11:55:47Z</time>
      </trkpt>
      <trkpt lat="50.651180" lon="6.429750">
        <ele>293.340000</ele>
        <time>2010-04-02T11:55:59Z</time>
      </trkpt>
      <trkpt lat="50.651316" lon="6.429699">
        <ele>296.700000</ele>
        <time>2010-04-02T11:56:16Z</time>
      </trkpt>
      <trkpt lat="50.651440" lon="6.429634">
        <ele>299.590000</ele>
        <time>2010-04-02T11:56:30Z</time>
      </trkpt>
      <trkpt lat="50.651513" lon="6.429619">
        <ele>301.510000</ele>
        <time>2010-04-02T11:56:37Z</time>
      </trkpt>
      <trkpt lat="50.651571" lon="6.429582">
        <ele>304.390000</ele>
        <time>2010-04-02T11:56:49Z</time>
      </trkpt>
      <trkpt lat="50.651747" lon="6.429460">
        <ele>307.760000</ele>
        <time>2010-04-02T11:57:03Z</time>
      </trkpt>
      <trkpt lat="50.651901" lon="6.429389">
        <ele>309.200000</ele>
        <time>2010-04-02T11:57:24Z</time>
      </trkpt>
      <trkpt lat="50.651802" lon="6.429219">
        <ele>310.640000</ele>
        <time>2010-04-02T11:57:37Z</time>
      </trkpt>
      <trkpt lat="50.651777" lon="6.428991">
        <ele>311.120000</ele>
        <time>2010-04-02T11:57:48Z</time>
      </trkpt>
      <trkpt lat="50.651829" lon="6.428653">
        <ele>312.570000</ele>
        <time>2010-04-02T11:58:08Z</time>
      </trkpt>
      <trkpt lat="50.651743" lon="6.428460">
        <ele>313.530000</ele>
        <time>2010-04-02T11:58:22Z</time>
      </trkpt>
      <trkpt lat="50.651607" lon="6.428323">
        <ele>316.410000</ele>
        <time>2010-04-02T11:58:39Z</time>
      </trkpt>
      <trkpt lat="50.651479" lon="6.428269">
        <ele>319.300000</ele>
        <time>2010-04-02T11:58:58Z</time>
      </trkpt>
      <trkpt lat="50.651361" lon="6.428058">
        <ele>321.700000</ele>
        <time>2010-04-02T11:59:15Z</time>
      </trkpt>
      <trkpt lat="50.651277" lon="6.427976">
        <ele>322.660000</ele>
        <time>2010-04-02T11:59:20Z</time>
      </trkpt>
      <trkpt lat="50.651046" lon="6.427885">
        <ele>325.540000</ele>
        <time>2010-04-02T11:59:38Z</time>
      </trkpt>
      <trkpt lat="50.650879" lon="6.427908">
        <ele>326.990000</ele>
        <time>2010-04-02T11:59:55Z</time>
      </trkpt>
      <trkpt lat="50.650800" lon="6.427848">
        <ele>327.950000</ele>
        <time>2010-04-02T12:00:23Z</time>
      </trkpt>
      <trkpt lat="50.650655" lon="6.427757">
        <ele>329.870000</ele>
        <time>2010-04-02T12:00:41Z</time>
      </trkpt>
      <trkpt lat="50.650568" lon="6.427630">
        <ele>332.750000</ele>
        <time>2010-04-02T12:00:59Z</time>
      </trkpt>
      <trkpt lat="50.650701" lon="6.427562">
        <ele>334.200000</ele>
        <time>2010-04-02T12:01:19Z</time>
      </trkpt>
      <trkpt lat="50.650960" lon="6.427584">
        <ele>336.120000</ele>
        <time>2010-04-02T12:01:38Z</time>
      </trkpt>
      <trkpt lat="50.651051" lon="6.427522">
        <ele>338.520000</ele>
        <time>2010-04-02T12:01:54Z</time>
      </trkpt>
      <trkpt lat="50.651232" lon="6.427500">
        <ele>340.440000</ele>
        <time>2010-04-02T12:02:14Z</time>
      </trkpt>
      <trkpt lat="50.651347" lon="6.427450">
        <ele>343.330000</ele>
        <time>2010-04-02T12:02:29Z</time>
      </trkpt>
      <trkpt lat="50.651505" lon="6.427440">
        <ele>346.210000</ele>
        <time>2010-04-02T12:02:48Z</time>
      </trkpt>
      <trkpt lat="50.651617" lon="6.427461">
        <ele>347.170000</ele>
        <time>2010-04-02T12:03:04Z</time>
      </trkpt>
      <trkpt lat="50.651809" lon="6.427434">
        <ele>349.580000</ele>
        <time>2010-04-02T12:03:22Z</time>
      </trkpt>
      <trkpt lat="50.652048" lon="6.427419">
        <ele>352.940000</ele>
        <time>2010-04-02T12:03:42Z</time>
      </trkpt>
      <trkpt lat="50.652255" lon="6.427457">
        <ele>354.860000</ele>
        <time>2010-04-02T12:03:58Z</time>
      </trkpt>
      <trkpt lat="50.652217" lon="6.427414">
        <ele>357.270000</ele>
        <time>2010-04-02T12:04:16Z</time>
      </trkpt>
      <trkpt lat="50.652178" lon="6.427402">
        <ele>358.710000</ele>
        <time>2010-04-02T12:04:35Z</time>
      </trkpt>
      <trkpt lat="50.652023" lon="6.427249">
        <ele>360.630000</ele>
        <time>2010-04-02T12:04:52Z</time>
      </trkpt>
      <trkpt lat="50.651931" lon="6.427210">
        <ele>362.550000</ele>
        <time>2010-04-02T12:05:04Z</time>
      </trkpt>
      <trkpt lat="50.651875" lon="6.427137">
        <ele>362.550000</ele>
        <time>2010-04-02T12:05:17Z</time>
      </trkpt>
      <trkpt lat="50.651771" lon="6.426960">
        <ele>365.440000</ele>
        <time>2010-04-02T12:05:33Z</time>
      </trkpt>
      <trkpt lat="50.651902" lon="6.426839">
        <ele>366.880000</ele>
        <time>2010-04-02T12:05:47Z</time>
      </trkpt>
      <trkpt lat="50.652017" lon="6.426923">
        <ele>368.320000</ele>
        <time>2010-04-02T12:06:05Z</time>
      </trkpt>
      <trkpt lat="50.652139" lon="6.426965">
        <ele>371.690000</ele>
        <time>2010-04-02T12:06:22Z</time>
      </trkpt>
      <trkpt lat="50.652285" lon="6.426969">
        <ele>373.130000</ele>
        <time>2010-04-02T12:06:41Z</time>
      </trkpt>
      <trkpt lat="50.652408" lon="6.426999">
        <ele>376.490000</ele>
        <time>2010-04-02T12:07:02Z</time>
      </trkpt>
      <trkpt lat="50.652394" lon="6.426987">
        <ele>377.450000</ele>
        <time>2010-04-02T12:07:38Z</time>
      </trkpt>
      <trkpt lat="50.652528" lon="6.427067">
        <ele>377.940000</ele>
        <time>2010-04-02T12:07:56Z</time>
      </trkpt>
      <trkpt lat="50.652688" lon="6.427195">
        <ele>377.940000</ele>
        <time>2010-04-02T12:08:14Z</time>
      </trkpt>
      <trkpt lat="50.652754" lon="6.427260">
        <ele>377.940000</ele>
        <time>2010-04-02T12:08:18Z</time>
      </trkpt>
      <trkpt lat="50.652979" lon="6.427640">
        <ele>379.380000</ele>
        <time>2010-04-02T12:08:39Z</time>
      </trkpt>
      <trkpt lat="50.653115" lon="6.427947">
        <ele>381.300000</ele>
        <time>2010-04-02T12:08:59Z</time>
      </trkpt>
      <trkpt lat="50.653116" lon="6.428143">
        <ele>384.180000</ele>
        <time>2010-04-02T12:09:09Z</time>
      </trkpt>
      <trkpt lat="50.653277" lon="6.428367">
        <ele>384.660000</ele>
        <time>2010-04-02T12:09:29Z</time>
      </trkpt>
      <trkpt lat="50.653436" lon="6.428634">
        <ele>387.550000</ele>
        <time>2010-04-02T12:09:48Z</time>
      </trkpt>
      <trkpt lat="50.653452" lon="6.428743">
        <ele>387.550000</ele>
        <time>2010-04-02T12:09:52Z</time>
      </trkpt>
      <trkpt lat="50.653395" lon="6.428722">
        <ele>389.950000</ele>
        <time>2010-04-02T12:10:13Z</time>
      </trkpt>
      <trkpt lat="50.653387" lon="6.428728">
        <ele>389.950000</ele>
        <time>2010-04-02T12:10:27Z</time>
      </trkpt>
      <trkpt lat="50.653377" lon="6.428710">
        <ele>390.430000</ele>
        <time>2010-04-02T12:10:42Z</time>
      </trkpt>
      <trkpt lat="50.653358" lon="6.428712">
        <ele>389.470000</ele>
        <time>2010-04-02T12:11:29Z</time>
      </trkpt>
      <trkpt lat="50.653366" lon="6.428724">
        <ele>390.430000</ele>
        <time>2010-04-02T12:11:45Z</time>
      </trkpt>
      <trkpt lat="50.653378" lon="6.428738">
        <ele>389.950000</ele>
        <time>2010-04-02T12:12:43Z</time>
      </trkpt>
      <trkpt lat="50.653335" lon="6.428536">
        <ele>393.320000</ele>
        <time>2010-04-02T12:14:50Z</time>
      </trkpt>
      <trkpt lat="50.653339" lon="6.428442">
        <ele>393.320000</ele>
        <time>2010-04-02T12:14:55Z</time>
      </trkpt>
      <trkpt lat="50.653393" lon="6.428072">
        <ele>396.680000</ele>
        <time>2010-04-02T12:15:14Z</time>
      </trkpt>
      <trkpt lat="50.653437" lon="6.427810">
        <ele>399.570000</ele>
        <time>2010-04-02T12:15:30Z</time>
      </trkpt>
      <trkpt lat="50.653460" lon="6.427589">
        <ele>402.930000</ele>
        <time>2010-04-02T12:15:43Z</time>
      </trkpt>
      <trkpt lat="50.653426" lon="6.427442">
        <ele>406.290000</ele>
        <time>2010-04-02T12:15:55Z</time>
      </trkpt>
      <trkpt lat="50.653473" lon="6.427217">
        <ele>409.180000</ele>
        <time>2010-04-02T12:16:07Z</time>
      </trkpt>
      <trkpt lat="50.653482" lon="6.427207">
        <ele>409.660000</ele>
        <time>2010-04-02T12:16:08Z</time>
      </trkpt>
      <trkpt lat="50.653493" lon="6.427190">
        <ele>410.140000</ele>
        <time>2010-04-02T12:16:09Z</time>
      </trkpt>
      <trkpt lat="50.653501" lon="6.426916">
        <ele>413.020000</ele>
        <time>2010-04-02T12:16:29Z</time>
      </trkpt>
      <trkpt lat="50.653409" lon="6.426638">
        <ele>413.020000</ele>
        <time>2010-04-02T12:16:51Z</time>
      </trkpt>
      <trkpt lat="50.653275" lon="6.426407">
        <ele>414.950000</ele>
        <time>2010-04-02T12:17:11Z</time>
      </trkpt>
      <trkpt lat="50.653258" lon="6.426219">
        <ele>416.390000</ele>
        <time>2010-04-02T12:17:30Z</time>
      </trkpt>
      <trkpt lat="50.653140" lon="6.426117">
        <ele>419.750000</ele>
        <time>2010-04-02T12:17:39Z</time>
      </trkpt>
      <trkpt lat="50.652983" lon="6.426034">
        <ele>420.710000</ele>
        <time>2010-04-02T12:17:56Z</time>
      </trkpt>
      <trkpt lat="50.652877" lon="6.425853">
        <ele>422.640000</ele>
        <time>2010-04-02T12:18:10Z</time>
      </trkpt>
      <trkpt lat="50.652848" lon="6.425677">
        <ele>426.000000</ele>
        <time>2010-04-02T12:18:27Z</time>
      </trkpt>
      <trkpt lat="50.652727" lon="6.425475">
        <ele>428.890000</ele>
        <time>2010-04-02T12:18:46Z</time>
      </trkpt>
      <trkpt lat="50.652661" lon="6.425191">
        <ele>431.290000</ele>
        <time>2010-04-02T12:19:04Z</time>
      </trkpt>
      <trkpt lat="50.652512" lon="6.424885">
        <ele>433.210000</ele>
        <time>2010-04-02T12:19:26Z</time>
      </trkpt>
      <trkpt lat="50.652284" lon="6.424700">
        <ele>432.730000</ele>
        <time>2010-04-02T12:19:43Z</time>
      </trkpt>
      <trkpt lat="50.652231" lon="6.424659">
        <ele>432.250000</ele>
        <time>2010-04-02T12:19:54Z</time>
      </trkpt>
      <trkpt lat="50.652238" lon="6.424710">
        <ele>430.810000</ele>
        <time>2010-04-02T12:21:05Z</time>
      </trkpt>
      <trkpt lat="50.652238" lon="6.424714">
        <ele>431.290000</ele>
        <time>2010-04-02T12:21:10Z</time>
      </trkpt>
      <trkpt lat="50.652192" lon="6.424711">
        <ele>430.330000</ele>
        <time>2010-04-02T12:22:47Z</time>
      </trkpt>
      <trkpt lat="50.652260" lon="6.424812">
        <ele>430.330000</ele>
        <time>2010-04-02T12:23:02Z</time>
      </trkpt>
      <trkpt lat="50.652226" lon="6.424804">
        <ele>430.330000</ele>
        <time>2010-04-02T12:23:21Z</time>
      </trkpt>
      <trkpt lat="50.652217" lon="6.424762">
        <ele>430.330000</ele>
        <time>2010-04-02T12:30:52Z</time>
      </trkpt>
      <trkpt lat="50.652311" lon="6.424866">
        <ele>429.850000</ele>
        <time>2010-04-02T12:31:00Z</time>
      </trkpt>
      <trkpt lat="50.652347" lon="6.424833">
        <ele>429.370000</ele>
        <time>2010-04-02T12:31:03Z</time>
      </trkpt>
      <trkpt lat="50.652377" lon="6.424776">
        <ele>428.890000</ele>
        <time>2010-04-02T12:31:06Z</time>
      </trkpt>
      <trkpt lat="50.652481" lon="6.424616">
        <ele>427.920000</ele>
        <time>2010-04-02T12:31:17Z</time>
      </trkpt>
      <trkpt lat="50.652543" lon="6.424561">
        <ele>426.960000</ele>
        <time>2010-04-02T12:31:22Z</time>
      </trkpt>
      <trkpt lat="50.652597" lon="6.424516">
        <ele>425.520000</ele>
        <time>2010-04-02T12:31:28Z</time>
      </trkpt>
      <trkpt lat="50.652608" lon="6.424491">
        <ele>425.520000</ele>
        <time>2010-04-02T12:31:31Z</time>
      </trkpt>
      <trkpt lat="50.652650" lon="6.424416">
        <ele>426.000000</ele>
        <time>2010-04-02T12:31:36Z</time>
      </trkpt>
      <trkpt lat="50.652760" lon="6.424215">
        <ele>426.480000</ele>
        <time>2010-04-02T12:31:49Z</time>
      </trkpt>
      <trkpt lat="50.652827" lon="6.424042">
        <ele>426.960000</ele>
        <time>2010-04-02T12:31:59Z</time>
      </trkpt>
      <trkpt lat="50.652982" lon="6.423758">
        <ele>427.440000</ele>
        <time>2010-04-02T12:32:17Z</time>
      </trkpt>
      <trkpt lat="50.653035" lon="6.423665">
        <ele>430.810000</ele>
        <time>2010-04-02T12:32:26Z</time>
      </trkpt>
      <trkpt lat="50.653072" lon="6.423576">
        <ele>430.810000</ele>
        <time>2010-04-02T12:32:32Z</time>
      </trkpt>
      <trkpt lat="50.653095" lon="6.423526">
        <ele>428.890000</ele>
        <time>2010-04-02T12:32:35Z</time>
      </trkpt>
      <trkpt lat="50.653122" lon="6.423293">
        <ele>429.370000</ele>
        <time>2010-04-02T12:32:48Z</time>
      </trkpt>
      <trkpt lat="50.653091" lon="6.422924">
        <ele>427.920000</ele>
        <time>2010-04-02T12:33:10Z</time>
      </trkpt>
      <trkpt lat="50.653027" lon="6.422514">
        <ele>429.370000</ele>
        <time>2010-04-02T12:33:30Z</time>
      </trkpt>
      <trkpt lat="50.652838" lon="6.422261">
        <ele>428.400000</ele>
        <time>2010-04-02T12:33:48Z</time>
      </trkpt>
      <trkpt lat="50.652786" lon="6.422225">
        <ele>428.400000</ele>
        <time>2010-04-02T12:34:13Z</time>
      </trkpt>
      <trkpt lat="50.652843" lon="6.422167">
        <ele>427.920000</ele>
        <time>2010-04-02T12:34:26Z</time>
      </trkpt>
      <trkpt lat="50.652934" lon="6.422110">
        <ele>426.960000</ele>
        <time>2010-04-02T12:34:32Z</time>
      </trkpt>
      <trkpt lat="50.653071" lon="6.421922">
        <ele>426.000000</ele>
        <time>2010-04-02T12:34:47Z</time>
      </trkpt>
      <trkpt lat="50.653065" lon="6.421752">
        <ele>424.560000</ele>
        <time>2010-04-02T12:34:56Z</time>
      </trkpt>
      <trkpt lat="50.653068" lon="6.421640">
        <ele>423.600000</ele>
        <time>2010-04-02T12:35:02Z</time>
      </trkpt>
      <trkpt lat="50.653109" lon="6.421258">
        <ele>423.120000</ele>
        <time>2010-04-02T12:35:22Z</time>
      </trkpt>
      <trkpt lat="50.653170" lon="6.420869">
        <ele>424.560000</ele>
        <time>2010-04-02T12:35:43Z</time>
      </trkpt>
      <trkpt lat="50.653176" lon="6.420401">
        <ele>423.600000</ele>
        <time>2010-04-02T12:36:07Z</time>
      </trkpt>
      <trkpt lat="50.653171" lon="6.420315">
        <ele>423.600000</ele>
        <time>2010-04-02T12:36:11Z</time>
      </trkpt>
      <trkpt lat="50.653150" lon="6.420092">
        <ele>421.190000</ele>
        <time>2010-04-02T12:36:25Z</time>
      </trkpt>
      <trkpt lat="50.653175" lon="6.419876">
        <ele>418.790000</ele>
        <time>2010-04-02T12:36:37Z</time>
      </trkpt>
      <trkpt lat="50.653178" lon="6.419858">
        <ele>418.790000</ele>
        <time>2010-04-02T12:36:38Z</time>
      </trkpt>
      <trkpt lat="50.653220" lon="6.419528">
        <ele>417.830000</ele>
        <time>2010-04-02T12:36:55Z</time>
      </trkpt>
      <trkpt lat="50.653374" lon="6.419167">
        <ele>418.790000</ele>
        <time>2010-04-02T12:37:15Z</time>
      </trkpt>
      <trkpt lat="50.653380" lon="6.419145">
        <ele>418.310000</ele>
        <time>2010-04-02T12:37:16Z</time>
      </trkpt>
      <trkpt lat="50.653403" lon="6.419010">
        <ele>418.790000</ele>
        <time>2010-04-02T12:37:22Z</time>
      </trkpt>
      <trkpt lat="50.653426" lon="6.418962">
        <ele>418.790000</ele>
        <time>2010-04-02T12:37:25Z</time>
      </trkpt>
      <trkpt lat="50.653448" lon="6.418892">
        <ele>419.270000</ele>
        <time>2010-04-02T12:37:29Z</time>
      </trkpt>
      <trkpt lat="50.653495" lon="6.418773">
        <ele>419.270000</ele>
        <time>2010-04-02T12:37:36Z</time>
      </trkpt>
      <trkpt lat="50.653521" lon="6.418748">
        <ele>420.230000</ele>
        <time>2010-04-02T12:37:38Z</time>
      </trkpt>
      <trkpt lat="50.653559" lon="6.418616">
        <ele>421.190000</ele>
        <time>2010-04-02T12:37:46Z</time>
      </trkpt>
      <trkpt lat="50.653583" lon="6.418559">
        <ele>420.710000</ele>
        <time>2010-04-02T12:37:49Z</time>
      </trkpt>
      <trkpt lat="50.653608" lon="6.418507">
        <ele>421.190000</ele>
        <time>2010-04-02T12:37:53Z</time>
      </trkpt>
      <trkpt lat="50.653749" lon="6.418320">
        <ele>421.680000</ele>
        <time>2010-04-02T12:38:07Z</time>
      </trkpt>
      <trkpt lat="50.653758" lon="6.418315">
        <ele>421.680000</ele>
        <time>2010-04-02T12:38:08Z</time>
      </trkpt>
      <trkpt lat="50.653823" lon="6.418236">
        <ele>419.750000</ele>
        <time>2010-04-02T12:38:14Z</time>
      </trkpt>
      <trkpt lat="50.653837" lon="6.418223">
        <ele>419.750000</ele>
        <time>2010-04-02T12:38:16Z</time>
      </trkpt>
      <trkpt lat="50.653863" lon="6.418154">
        <ele>419.750000</ele>
        <time>2010-04-02T12:38:20Z</time>
      </trkpt>
      <trkpt lat="50.653915" lon="6.418073">
        <ele>420.710000</ele>
        <time>2010-04-02T12:38:26Z</time>
      </trkpt>
      <trkpt lat="50.653962" lon="6.418011">
        <ele>419.270000</ele>
        <time>2010-04-02T12:38:30Z</time>
      </trkpt>
      <trkpt lat="50.653991" lon="6.417915">
        <ele>419.270000</ele>
        <time>2010-04-02T12:38:36Z</time>
      </trkpt>
      <trkpt lat="50.654008" lon="6.417875">
        <ele>419.270000</ele>
        <time>2010-04-02T12:38:39Z</time>
      </trkpt>
      <trkpt lat="50.654063" lon="6.417713">
        <ele>419.270000</ele>
        <time>2010-04-02T12:38:51Z</time>
      </trkpt>
      <trkpt lat="50.654045" lon="6.417639">
        <ele>416.390000</ele>
        <time>2010-04-02T12:39:05Z</time>
      </trkpt>
      <trkpt lat="50.654042" lon="6.417654">
        <ele>418.310000</ele>
        <time>2010-04-02T12:39:11Z</time>
      </trkpt>
      <trkpt lat="50.654017" lon="6.417594">
        <ele>419.270000</ele>
        <time>2010-04-02T12:39:54Z</time>
      </trkpt>
      <trkpt lat="50.654052" lon="6.417596">
        <ele>415.910000</ele>
        <time>2010-04-02T12:41:54Z</time>
      </trkpt>
      <trkpt lat="50.654052" lon="6.417595">
        <ele>415.910000</ele>
        <time>2010-04-02T12:41:55Z</time>
      </trkpt>
      <trkpt lat="50.654028" lon="6.417347">
        <ele>419.270000</ele>
        <time>2010-04-02T12:42:07Z</time>
      </trkpt>
      <trkpt lat="50.654003" lon="6.417193">
        <ele>419.270000</ele>
        <time>2010-04-02T12:42:17Z</time>
      </trkpt>
      <trkpt lat="50.653954" lon="6.416782">
        <ele>418.790000</ele>
        <time>2010-04-02T12:42:39Z</time>
      </trkpt>
      <trkpt lat="50.653950" lon="6.416495">
        <ele>416.870000</ele>
        <time>2010-04-02T12:42:56Z</time>
      </trkpt>
      <trkpt lat="50.653797" lon="6.416131">
        <ele>415.910000</ele>
        <time>2010-04-02T12:43:17Z</time>
      </trkpt>
      <trkpt lat="50.653718" lon="6.415992">
        <ele>415.910000</ele>
        <time>2010-04-02T12:43:24Z</time>
      </trkpt>
      <trkpt lat="50.653654" lon="6.415913">
        <ele>416.390000</ele>
        <time>2010-04-02T12:43:28Z</time>
      </trkpt>
      <trkpt lat="50.653541" lon="6.415695">
        <ele>418.310000</ele>
        <time>2010-04-02T12:43:42Z</time>
      </trkpt>
      <trkpt lat="50.653425" lon="6.415506">
        <ele>420.230000</ele>
        <time>2010-04-02T12:43:54Z</time>
      </trkpt>
      <trkpt lat="50.653349" lon="6.415360">
        <ele>420.710000</ele>
        <time>2010-04-02T12:44:04Z</time>
      </trkpt>
      <trkpt lat="50.653333" lon="6.415346">
        <ele>420.710000</ele>
        <time>2010-04-02T12:44:06Z</time>
      </trkpt>
      <trkpt lat="50.653192" lon="6.415165">
        <ele>422.640000</ele>
        <time>2010-04-02T12:44:22Z</time>
      </trkpt>
      <trkpt lat="50.653167" lon="6.415137">
        <ele>423.120000</ele>
        <time>2010-04-02T12:44:25Z</time>
      </trkpt>
      <trkpt lat="50.653116" lon="6.415094">
        <ele>422.640000</ele>
        <time>2010-04-02T12:44:30Z</time>
      </trkpt>
      <trkpt lat="50.653108" lon="6.415031">
        <ele>422.640000</ele>
        <time>2010-04-02T12:44:33Z</time>
      </trkpt>
      <trkpt lat="50.652914" lon="6.414934">
        <ele>423.120000</ele>
        <time>2010-04-02T12:44:45Z</time>
      </trkpt>
      <trkpt lat="50.652776" lon="6.414767">
        <ele>422.640000</ele>
        <time>2010-04-02T12:44:57Z</time>
      </trkpt>
      <trkpt lat="50.652709" lon="6.414735">
        <ele>422.160000</ele>
        <time>2010-04-02T12:45:02Z</time>
      </trkpt>
      <trkpt lat="50.652661" lon="6.414684">
        <ele>422.160000</ele>
        <time>2010-04-02T12:45:08Z</time>
      </trkpt>
      <trkpt lat="50.652606" lon="6.414608">
        <ele>421.680000</ele>
        <time>2010-04-02T12:45:14Z</time>
      </trkpt>
      <trkpt lat="50.652559" lon="6.414532">
        <ele>423.120000</ele>
        <time>2010-04-02T12:45:21Z</time>
      </trkpt>
      <trkpt lat="50.652346" lon="6.414420">
        <ele>423.600000</ele>
        <time>2010-04-02T12:45:38Z</time>
      </trkpt>
      <trkpt lat="50.652161" lon="6.414287">
        <ele>424.080000</ele>
        <time>2010-04-02T12:45:51Z</time>
      </trkpt>
      <trkpt lat="50.652104" lon="6.414199">
        <ele>424.560000</ele>
        <time>2010-04-02T12:45:56Z</time>
      </trkpt>
      <trkpt lat="50.652012" lon="6.414100">
        <ele>425.520000</ele>
        <time>2010-04-02T12:46:05Z</time>
      </trkpt>
      <trkpt lat="50.651913" lon="6.414058">
        <ele>426.000000</ele>
        <time>2010-04-02T12:46:18Z</time>
      </trkpt>
      <trkpt lat="50.651783" lon="6.413941">
        <ele>426.960000</ele>
        <time>2010-04-02T12:46:31Z</time>
      </trkpt>
      <trkpt lat="50.651796" lon="6.413885">
        <ele>426.000000</ele>
        <time>2010-04-02T12:46:34Z</time>
      </trkpt>
      <trkpt lat="50.651838" lon="6.413756">
        <ele>427.920000</ele>
        <time>2010-04-02T12:46:41Z</time>
      </trkpt>
      <trkpt lat="50.651948" lon="6.413523">
        <ele>427.920000</ele>
        <time>2010-04-02T12:46:56Z</time>
      </trkpt>
      <trkpt lat="50.652005" lon="6.413439">
        <ele>428.890000</ele>
        <time>2010-04-02T12:47:03Z</time>
      </trkpt>
      <trkpt lat="50.652059" lon="6.413303">
        <ele>429.370000</ele>
        <time>2010-04-02T12:47:11Z</time>
      </trkpt>
      <trkpt lat="50.652117" lon="6.413266">
        <ele>429.850000</ele>
        <time>2010-04-02T12:47:16Z</time>
      </trkpt>
      <trkpt lat="50.652177" lon="6.413174">
        <ele>429.850000</ele>
        <time>2010-04-02T12:47:24Z</time>
      </trkpt>
      <trkpt lat="50.652216" lon="6.413128">
        <ele>429.850000</ele>
        <time>2010-04-02T12:47:29Z</time>
      </trkpt>
      <trkpt lat="50.652307" lon="6.412916">
        <ele>429.850000</ele>
        <time>2010-04-02T12:47:40Z</time>
      </trkpt>
      <trkpt lat="50.652495" lon="6.412881">
        <ele>431.770000</ele>
        <time>2010-04-02T12:47:58Z</time>
      </trkpt>
      <trkpt lat="50.652664" lon="6.412906">
        <ele>434.650000</ele>
        <time>2010-04-02T12:48:14Z</time>
      </trkpt>
      <trkpt lat="50.652861" lon="6.412926">
        <ele>434.650000</ele>
        <time>2010-04-02T12:48:31Z</time>
      </trkpt>
      <trkpt lat="50.653025" lon="6.412980">
        <ele>436.580000</ele>
        <time>2010-04-02T12:48:45Z</time>
      </trkpt>
      <trkpt lat="50.653161" lon="6.413089">
        <ele>437.540000</ele>
        <time>2010-04-02T12:48:58Z</time>
      </trkpt>
      <trkpt lat="50.653316" lon="6.413203">
        <ele>439.460000</ele>
        <time>2010-04-02T12:49:11Z</time>
      </trkpt>
      <trkpt lat="50.653416" lon="6.413405">
        <ele>440.900000</ele>
        <time>2010-04-02T12:49:26Z</time>
      </trkpt>
      <trkpt lat="50.653532" lon="6.413559">
        <ele>442.820000</ele>
        <time>2010-04-02T12:49:40Z</time>
      </trkpt>
      <trkpt lat="50.653643" lon="6.413619">
        <ele>442.820000</ele>
        <time>2010-04-02T12:49:51Z</time>
      </trkpt>
      <trkpt lat="50.653685" lon="6.413644">
        <ele>442.820000</ele>
        <time>2010-04-02T12:49:55Z</time>
      </trkpt>
      <trkpt lat="50.653940" lon="6.413565">
        <ele>444.270000</ele>
        <time>2010-04-02T12:50:14Z</time>
      </trkpt>
      <trkpt lat="50.654130" lon="6.413539">
        <ele>444.750000</ele>
        <time>2010-04-02T12:50:32Z</time>
      </trkpt>
      <trkpt lat="50.654298" lon="6.413494">
        <ele>444.270000</ele>
        <time>2010-04-02T12:50:44Z</time>
      </trkpt>
      <trkpt lat="50.654313" lon="6.413466">
        <ele>444.270000</ele>
        <time>2010-04-02T12:50:46Z</time>
      </trkpt>
      <trkpt lat="50.654392" lon="6.413394">
        <ele>443.790000</ele>
        <time>2010-04-02T12:50:53Z</time>
      </trkpt>
      <trkpt lat="50.654416" lon="6.413380">
        <ele>443.790000</ele>
        <time>2010-04-02T12:50:55Z</time>
      </trkpt>
      <trkpt lat="50.654484" lon="6.413340">
        <ele>443.790000</ele>
        <time>2010-04-02T12:51:00Z</time>
      </trkpt>
      <trkpt lat="50.654652" lon="6.413328">
        <ele>442.820000</ele>
        <time>2010-04-02T12:51:16Z</time>
      </trkpt>
      <trkpt lat="50.654734" lon="6.413316">
        <ele>440.900000</ele>
        <time>2010-04-02T12:51:22Z</time>
      </trkpt>
      <trkpt lat="50.654872" lon="6.413273">
        <ele>443.310000</ele>
        <time>2010-04-02T12:51:35Z</time>
      </trkpt>
      <trkpt lat="50.655058" lon="6.413099">
        <ele>443.790000</ele>
        <time>2010-04-02T12:51:51Z</time>
      </trkpt>
      <trkpt lat="50.655242" lon="6.413028">
        <ele>444.270000</ele>
        <time>2010-04-02T12:52:06Z</time>
      </trkpt>
      <trkpt lat="50.655441" lon="6.412965">
        <ele>444.750000</ele>
        <time>2010-04-02T12:52:22Z</time>
      </trkpt>
      <trkpt lat="50.655630" lon="6.413013">
        <ele>446.670000</ele>
        <time>2010-04-02T12:52:37Z</time>
      </trkpt>
      <trkpt lat="50.655735" lon="6.412982">
        <ele>448.110000</ele>
        <time>2010-04-02T12:52:45Z</time>
      </trkpt>
      <trkpt lat="50.655778" lon="6.412876">
        <ele>448.110000</ele>
        <time>2010-04-02T12:52:50Z</time>
      </trkpt>
      <trkpt lat="50.655818" lon="6.412691">
        <ele>446.190000</ele>
        <time>2010-04-02T12:52:59Z</time>
      </trkpt>
      <trkpt lat="50.655825" lon="6.412548">
        <ele>447.150000</ele>
        <time>2010-04-02T12:53:06Z</time>
      </trkpt>
      <trkpt lat="50.655867" lon="6.412159">
        <ele>447.150000</ele>
        <time>2010-04-02T12:53:24Z</time>
      </trkpt>
      <trkpt lat="50.655886" lon="6.411889">
        <ele>447.150000</ele>
        <time>2010-04-02T12:53:38Z</time>
      </trkpt>
      <trkpt lat="50.655906" lon="6.411628">
        <ele>448.110000</ele>
        <time>2010-04-02T12:53:53Z</time>
      </trkpt>
      <trkpt lat="50.655911" lon="6.411473">
        <ele>448.590000</ele>
        <time>2010-04-02T12:54:01Z</time>
      </trkpt>
      <trkpt lat="50.655880" lon="6.411208">
        <ele>448.590000</ele>
        <time>2010-04-02T12:54:15Z</time>
      </trkpt>
      <trkpt lat="50.655884" lon="6.411134">
        <ele>450.030000</ele>
        <time>2010-04-02T12:54:20Z</time>
      </trkpt>
      <trkpt lat="50.655893" lon="6.410827">
        <ele>451.000000</ele>
        <time>2010-04-02T12:54:35Z</time>
      </trkpt>
      <trkpt lat="50.655882" lon="6.410641">
        <ele>453.880000</ele>
        <time>2010-04-02T12:54:46Z</time>
      </trkpt>
      <trkpt lat="50.655879" lon="6.410422">
        <ele>454.360000</ele>
        <time>2010-04-02T12:54:59Z</time>
      </trkpt>
      <trkpt lat="50.655839" lon="6.410272">
        <ele>454.840000</ele>
        <time>2010-04-02T12:55:07Z</time>
      </trkpt>
      <trkpt lat="50.655843" lon="6.410243">
        <ele>454.840000</ele>
        <time>2010-04-02T12:55:09Z</time>
      </trkpt>
      <trkpt lat="50.655808" lon="6.410108">
        <ele>454.840000</ele>
        <time>2010-04-02T12:55:18Z</time>
      </trkpt>
      <trkpt lat="50.655822" lon="6.409852">
        <ele>456.280000</ele>
        <time>2010-04-02T12:55:31Z</time>
      </trkpt>
      <trkpt lat="50.655809" lon="6.409536">
        <ele>458.210000</ele>
        <time>2010-04-02T12:55:49Z</time>
      </trkpt>
      <trkpt lat="50.655778" lon="6.409315">
        <ele>459.650000</ele>
        <time>2010-04-02T12:56:03Z</time>
      </trkpt>
      <trkpt lat="50.655769" lon="6.409275">
        <ele>460.610000</ele>
        <time>2010-04-02T12:56:06Z</time>
      </trkpt>
      <trkpt lat="50.655806" lon="6.408965">
        <ele>462.050000</ele>
        <time>2010-04-02T12:56:23Z</time>
      </trkpt>
      <trkpt lat="50.655801" lon="6.408726">
        <ele>464.450000</ele>
        <time>2010-04-02T12:56:38Z</time>
      </trkpt>
      <trkpt lat="50.655826" lon="6.408646">
        <ele>465.420000</ele>
        <time>2010-04-02T12:56:42Z</time>
      </trkpt>
      <trkpt lat="50.655813" lon="6.408573">
        <ele>463.490000</ele>
        <time>2010-04-02T12:56:46Z</time>
      </trkpt>
      <trkpt lat="50.655824" lon="6.408468">
        <ele>464.930000</ele>
        <time>2010-04-02T12:56:52Z</time>
      </trkpt>
      <trkpt lat="50.655855" lon="6.408273">
        <ele>465.900000</ele>
        <time>2010-04-02T12:57:03Z</time>
      </trkpt>
      <trkpt lat="50.655872" lon="6.408174">
        <ele>465.420000</ele>
        <time>2010-04-02T12:57:09Z</time>
      </trkpt>
      <trkpt lat="50.655922" lon="6.407973">
        <ele>465.420000</ele>
        <time>2010-04-02T12:57:21Z</time>
      </trkpt>
      <trkpt lat="50.655934" lon="6.407848">
        <ele>465.900000</ele>
        <time>2010-04-02T12:57:27Z</time>
      </trkpt>
      <trkpt lat="50.655938" lon="6.407625">
        <ele>464.930000</ele>
        <time>2010-04-02T12:57:37Z</time>
      </trkpt>
      <trkpt lat="50.655952" lon="6.407342">
        <ele>465.420000</ele>
        <time>2010-04-02T12:57:51Z</time>
      </trkpt>
      <trkpt lat="50.655953" lon="6.407175">
        <ele>463.970000</ele>
        <time>2010-04-02T12:57:59Z</time>
      </trkpt>
      <trkpt lat="50.655958" lon="6.407029">
        <ele>464.930000</ele>
        <time>2010-04-02T12:58:06Z</time>
      </trkpt>
      <trkpt lat="50.656142" lon="6.406940">
        <ele>463.970000</ele>
        <time>2010-04-02T12:58:21Z</time>
      </trkpt>
      <trkpt lat="50.656335" lon="6.407055">
        <ele>465.420000</ele>
        <time>2010-04-02T12:58:35Z</time>
      </trkpt>
      <trkpt lat="50.656494" lon="6.407154">
        <ele>466.380000</ele>
        <time>2010-04-02T12:58:49Z</time>
      </trkpt>
      <trkpt lat="50.656513" lon="6.407157">
        <ele>465.900000</ele>
        <time>2010-04-02T12:58:51Z</time>
      </trkpt>
      <trkpt lat="50.656600" lon="6.407196">
        <ele>467.340000</ele>
        <time>2010-04-02T12:58:57Z</time>
      </trkpt>
      <trkpt lat="50.656629" lon="6.407457">
        <ele>467.340000</ele>
        <time>2010-04-02T12:59:11Z</time>
      </trkpt>
      <trkpt lat="50.656607" lon="6.407739">
        <ele>467.340000</ele>
        <time>2010-04-02T12:59:23Z</time>
      </trkpt>
      <trkpt lat="50.656595" lon="6.407844">
        <ele>467.340000</ele>
        <time>2010-04-02T12:59:30Z</time>
      </trkpt>
      <trkpt lat="50.656637" lon="6.407984">
        <ele>467.820000</ele>
        <time>2010-04-02T12:59:37Z</time>
      </trkpt>
      <trkpt lat="50.656637" lon="6.408110">
        <ele>467.340000</ele>
        <time>2010-04-02T12:59:44Z</time>
      </trkpt>
      <trkpt lat="50.656686" lon="6.408270">
        <ele>466.860000</ele>
        <time>2010-04-02T12:59:53Z</time>
      </trkpt>
      <trkpt lat="50.656717" lon="6.408405">
        <ele>466.860000</ele>
        <time>2010-04-02T12:59:58Z</time>
      </trkpt>
      <trkpt lat="50.656728" lon="6.408478">
        <ele>467.340000</ele>
        <time>2010-04-02T13:00:02Z</time>
      </trkpt>
      <trkpt lat="50.656749" lon="6.408534">
        <ele>466.860000</ele>
        <time>2010-04-02T13:00:06Z</time>
      </trkpt>
      <trkpt lat="50.656782" lon="6.408708">
        <ele>466.380000</ele>
        <time>2010-04-02T13:00:14Z</time>
      </trkpt>
      <trkpt lat="50.656814" lon="6.408882">
        <ele>466.860000</ele>
        <time>2010-04-02T13:00:27Z</time>
      </trkpt>
      <trkpt lat="50.656867" lon="6.409135">
        <ele>466.380000</ele>
        <time>2010-04-02T13:00:42Z</time>
      </trkpt>
      <trkpt lat="50.656921" lon="6.409392">
        <ele>464.930000</ele>
        <time>2010-04-02T13:00:52Z</time>
      </trkpt>
      <trkpt lat="50.656952" lon="6.409373">
        <ele>464.450000</ele>
        <time>2010-04-02T13:00:54Z</time>
      </trkpt>
      <trkpt lat="50.657173" lon="6.409343">
        <ele>465.420000</ele>
        <time>2010-04-02T13:01:10Z</time>
      </trkpt>
      <trkpt lat="50.657237" lon="6.409379">
        <ele>465.900000</ele>
        <time>2010-04-02T13:01:15Z</time>
      </trkpt>
      <trkpt lat="50.657418" lon="6.409488">
        <ele>464.930000</ele>
        <time>2010-04-02T13:01:30Z</time>
      </trkpt>
      <trkpt lat="50.657493" lon="6.409545">
        <ele>465.420000</ele>
        <time>2010-04-02T13:01:38Z</time>
      </trkpt>
      <trkpt lat="50.657695" lon="6.409639">
        <ele>463.970000</ele>
        <time>2010-04-02T13:01:53Z</time>
      </trkpt>
      <trkpt lat="50.657822" lon="6.409677">
        <ele>463.970000</ele>
        <time>2010-04-02T13:02:06Z</time>
      </trkpt>
      <trkpt lat="50.657961" lon="6.409699">
        <ele>463.490000</ele>
        <time>2010-04-02T13:02:17Z</time>
      </trkpt>
      <trkpt lat="50.658002" lon="6.409648">
        <ele>463.490000</ele>
        <time>2010-04-02T13:02:22Z</time>
      </trkpt>
      <trkpt lat="50.658092" lon="6.409339">
        <ele>463.970000</ele>
        <time>2010-04-02T13:02:39Z</time>
      </trkpt>
      <trkpt lat="50.658122" lon="6.409292">
        <ele>464.450000</ele>
        <time>2010-04-02T13:02:42Z</time>
      </trkpt>
      <trkpt lat="50.658200" lon="6.409077">
        <ele>464.450000</ele>
        <time>2010-04-02T13:02:55Z</time>
      </trkpt>
      <trkpt lat="50.658238" lon="6.409073">
        <ele>464.930000</ele>
        <time>2010-04-02T13:02:58Z</time>
      </trkpt>
      <trkpt lat="50.658342" lon="6.409207">
        <ele>463.490000</ele>
        <time>2010-04-02T13:03:09Z</time>
      </trkpt>
      <trkpt lat="50.658433" lon="6.409248">
        <ele>463.970000</ele>
        <time>2010-04-02T13:03:13Z</time>
      </trkpt>
      <trkpt lat="50.658464" lon="6.409325">
        <ele>462.530000</ele>
        <time>2010-04-02T13:03:18Z</time>
      </trkpt>
      <trkpt lat="50.658610" lon="6.409409">
        <ele>463.490000</ele>
        <time>2010-04-02T13:03:30Z</time>
      </trkpt>
      <trkpt lat="50.658677" lon="6.409471">
        <ele>461.090000</ele>
        <time>2010-04-02T13:03:38Z</time>
      </trkpt>
      <trkpt lat="50.658688" lon="6.409486">
        <ele>462.050000</ele>
        <time>2010-04-02T13:03:40Z</time>
      </trkpt>
      <trkpt lat="50.658768" lon="6.409524">
        <ele>463.490000</ele>
        <time>2010-04-02T13:03:48Z</time>
      </trkpt>
      <trkpt lat="50.658893" lon="6.409643">
        <ele>462.530000</ele>
        <time>2010-04-02T13:03:58Z</time>
      </trkpt>
      <trkpt lat="50.658926" lon="6.409561">
        <ele>463.010000</ele>
        <time>2010-04-02T13:04:02Z</time>
      </trkpt>
      <trkpt lat="50.658941" lon="6.409423">
        <ele>463.490000</ele>
        <time>2010-04-02T13:04:08Z</time>
      </trkpt>
      <trkpt lat="50.658960" lon="6.409388">
        <ele>463.970000</ele>
        <time>2010-04-02T13:04:11Z</time>
      </trkpt>
      <trkpt lat="50.659021" lon="6.409368">
        <ele>465.420000</ele>
        <time>2010-04-02T13:04:15Z</time>
      </trkpt>
      <trkpt lat="50.659034" lon="6.409337">
        <ele>463.490000</ele>
        <time>2010-04-02T13:04:17Z</time>
      </trkpt>
      <trkpt lat="50.659046" lon="6.409311">
        <ele>462.530000</ele>
        <time>2010-04-02T13:04:19Z</time>
      </trkpt>
      <trkpt lat="50.659075" lon="6.409116">
        <ele>463.490000</ele>
        <time>2010-04-02T13:04:29Z</time>
      </trkpt>
      <trkpt lat="50.659039" lon="6.408932">
        <ele>463.490000</ele>
        <time>2010-04-02T13:04:34Z</time>
      </trkpt>
      <trkpt lat="50.659095" lon="6.408834"/>
      <trkpt lat="50.659131" lon="6.408663"/>
      <trkpt lat="50.659185" lon="6.408451"/>
      <trkpt lat="50.659311" lon="6.408408"/>
      <trkpt lat="50.659482" lon="6.408323"/>
      <trkpt lat="50.659697" lon="6.408224"/>
      <trkpt lat="50.659706" lon="6.408224"/>
      <trkpt lat="50.659859" lon="6.408097"/>
      <trkpt lat="50.660030" lon="6.407856"/>
      <trkpt lat="50.660057" lon="6.407813"/>
      <trkpt lat="50.660182" lon="6.407686"/>
      <trkpt lat="50.660353" lon="6.407431"/>
      <trkpt lat="50.660470" lon="6.407303"/>
      <trkpt lat="50.660578" lon="6.407544"/>
      <trkpt lat="50.660587" lon="6.407544"/>
      <trkpt lat="50.660712" lon="6.407728"/>
      <trkpt lat="50.660793" lon="6.407898"/>
      <trkpt lat="50.660919" lon="6.408125"/>
      <trkpt lat="50.661099" lon="6.408423"/>
      <trkpt lat="50.661189" lon="6.408663"/>
      <trkpt lat="50.661251" lon="6.408848"/>
      <trkpt lat="50.661341" lon="6.408678"/>
      <trkpt lat="50.661494" lon="6.408451"/>
      <trkpt lat="50.661665" lon="6.408139"/>
      <trkpt lat="50.661844" lon="6.407884"/>
      <trkpt lat="50.661988" lon="6.407672"/>
      <trkpt lat="50.661889" lon="6.407615"/>
      <trkpt lat="50.662015" lon="6.407374"/>
      <trkpt lat="50.662132" lon="6.407119"/>
      <trkpt lat="50.662294" lon="6.406807"/>
      <trkpt lat="50.662473" lon="6.406595"/>
      <trkpt lat="50.662644" lon="6.406354"/>
      <trkpt lat="50.662698" lon="6.406184"/>
      <trkpt lat="50.662779" lon="6.406084"/>
      <trkpt lat="50.662895" lon="6.406339"/>
      <trkpt lat="50.663039" lon="6.406524"/>
      <trkpt lat="50.663048" lon="6.406538"/>
      <trkpt lat="50.663138" lon="6.406750"/>
      <trkpt lat="50.663147" lon="6.406765"/>
      <trkpt lat="50.663264" lon="6.406977"/>
      <trkpt lat="50.663353" lon="6.407190"/>
      <trkpt lat="50.663363" lon="6.407523"/>
      <trkpt lat="50.663452" lon="6.407905"/>
      <trkpt lat="50.663668" lon="6.408245"/>
      <trkpt lat="50.663848" lon="6.408486"/>
      <trkpt lat="50.664144" lon="6.408954"/>
      <trkpt lat="50.664216" lon="6.409053"/>
      <trkpt lat="50.664126" lon="6.408854"/>
      <trkpt lat="50.663884" lon="6.408585"/>
      <trkpt lat="50.663641" lon="6.408231"/>
      <trkpt lat="50.663453" lon="6.407848"/>
      <trkpt lat="50.663345" lon="6.407437"/>
      <trkpt lat="50.663336" lon="6.407168"/>
      <trkpt lat="50.663156" lon="6.406785"/>
      <trkpt lat="50.663156" lon="6.406771"/>
      <trkpt lat="50.662914" lon="6.406332"/>
      <trkpt lat="50.662779" lon="6.406119"/>
      <trkpt lat="50.662617" lon="6.406360"/>
      <trkpt lat="50.662393" lon="6.406715"/>
      <trkpt lat="50.662159" lon="6.407069"/>
      <trkpt lat="50.661925" lon="6.407508"/>
      <trkpt lat="50.661889" lon="6.407593"/>
      <trkpt lat="50.661988" lon="6.407664"/>
      <trkpt lat="50.661674" lon="6.408118"/>
      <trkpt lat="50.661288" lon="6.408769"/>
      <trkpt lat="50.661234" lon="6.408826"/>
      <trkpt lat="50.661126" lon="6.408528"/>
      <trkpt lat="50.660946" lon="6.408132"/>
      <trkpt lat="50.660776" lon="6.407862"/>
      <trkpt lat="50.660614" lon="6.407593"/>
      <trkpt lat="50.660488" lon="6.407352"/>
      <trkpt lat="50.660488" lon="6.407338"/>
      <trkpt lat="50.660479" lon="6.407281"/>
      <trkpt lat="50.660210" lon="6.407636"/>
      <trkpt lat="50.659913" lon="6.408004"/>
      <trkpt lat="50.659644" lon="6.408288"/>
      <trkpt lat="50.659410" lon="6.408373"/>
      <trkpt lat="50.659168" lon="6.408486"/>
    </trkseg>
  </trk>

</gpx>
